This is the latest recevied weather packets stored in our database for station/object KD5FHA. If no packets are shown the sender has not sent any weather packets the latest 10 day(s).
| Time | Temp. | Humidity | Pressure | Rain* | Wind** | Luminosity | Snow |
|---|---|---|---|---|---|---|---|
| 1777758349 | 27.78° C | 34% | 1020.2 hPa | 0 mm | - | 667 W/m² | - |
| 1777758041 | 27.22° C | 35% | 1020.2 hPa | 0 mm | - | 661 W/m² | - |
| 1777757738 | 27.78° C | 32% | 1020.2 hPa | 0 mm | - | 657 W/m² | - |
| 1777757436 | 26.67° C | 33% | 1020.3 hPa | 0 mm | - | 668 W/m² | - |
| 1777757135 | 26.67° C | 33% | 1020.4 hPa | 0 mm | - | 698 W/m² | - |
| 1777756832 | 26.67° C | 34% | 1020.3 hPa | 0 mm | - | 711 W/m² | - |
| 1777756527 | 26.67° C | 32% | 1020.4 hPa | 0 mm | - | 712 W/m² | - |
| 1777756225 | 26.11° C | 34% | 1020.5 hPa | 0 mm | - | 748 W/m² | - |
| 1777755921 | 26.11° C | 34% | 1020.6 hPa | 0 mm | - | 784 W/m² | - |
| 1777755619 | 27.22° C | 33% | 1020.5 hPa | 0 mm | - | 787 W/m² | - |
| 1777755315 | 25.56° C | 34% | 1020.6 hPa | 0 mm | - | 801 W/m² | - |
| 1777755012 | 26.67° C | 33% | 1020.7 hPa | 0 mm | - | 778 W/m² | - |
| 1777754709 | 25.56° C | 35% | 1020.7 hPa | 0 mm | - | 798 W/m² | - |
| 1777754407 | 25° C | 36% | 1020.7 hPa | 0 mm | - | 793 W/m² | - |
| 1777754104 | 25.56° C | 35% | 1020.7 hPa | 0 mm | - | 807 W/m² | - |
| 1777753801 | 25.56° C | 34% | 1020.7 hPa | 0 mm | - | 809 W/m² | - |
| 1777753496 | 25.56° C | 34% | 1020.8 hPa | 0 mm | - | 826 W/m² | - |
| 1777753195 | 25.56° C | 34% | 1021 hPa | 0 mm | - | 838 W/m² | - |
| 1777752890 | 25° C | 34% | 1021 hPa | 0 mm | - | 846 W/m² | - |
| 1777752587 | 25.56° C | 36% | 1021.1 hPa | 0 mm | - | 852 W/m² | - |
| 1777752283 | 26.67° C | 33% | 1021 hPa | 0 mm | - | 856 W/m² | - |
| 1777751981 | 25.56° C | 37% | 1021.2 hPa | 0 mm | - | 866 W/m² | - |
| 1777751678 | 25.56° C | 36% | 1021.3 hPa | 0 mm | - | 884 W/m² | - |
| 1777751374 | 25° C | 35% | 1021.2 hPa | 0 mm | - | 896 W/m² | - |
| 1777751071 | 25° C | 35% | 1021 hPa | 0 mm | - | 887 W/m² | - |
* Rain latest hour (hover to see other rain measurements)
** Current wind speed in m/s (hover to see current wind gust speed)